createdAt,value
2018-06-15T00:02:47.521Z,1009.80
2018-06-15T00:07:43.617Z,1009.72
2018-06-15T00:12:39.628Z,1009.68
2018-06-15T00:17:35.429Z,1009.71
2018-06-15T00:22:31.882Z,1009.71
2018-06-15T00:27:28.801Z,1009.66
2018-06-15T00:32:24.369Z,1009.69
2018-06-15T00:37:20.240Z,1009.56
2018-06-15T00:42:16.325Z,1009.62
2018-06-15T00:47:12.213Z,1009.63
2018-06-15T00:52:07.976Z,1009.62
2018-06-15T00:57:03.854Z,1009.55
2018-06-15T01:02:00.542Z,1009.53
2018-06-15T01:06:56.664Z,1009.53
2018-06-15T01:11:52.450Z,1009.49
2018-06-15T01:16:48.408Z,1009.42
2018-06-15T01:21:44.809Z,1009.43
2018-06-15T01:26:40.563Z,1009.42
2018-06-15T01:31:37.433Z,1009.41
2018-06-15T01:36:33.004Z,1009.45
2018-06-15T01:41:28.690Z,1009.48
2018-06-15T01:46:24.809Z,1009.44
2018-06-15T01:51:21.503Z,1009.34
2018-06-15T01:56:16.966Z,1009.33
2018-06-15T02:01:12.745Z,1009.37
2018-06-15T02:06:08.921Z,1009.37
2018-06-15T02:11:06.301Z,1009.29
2018-06-15T02:16:02.909Z,1009.22
2018-06-15T02:20:59.590Z,1009.12
2018-06-15T02:25:54.993Z,1009.12
2018-06-15T02:30:51.543Z,1009.18
2018-06-15T02:35:47.343Z,1009.25
2018-06-15T02:40:43.442Z,1009.26
2018-06-15T02:45:39.309Z,1009.28
2018-06-15T02:50:35.516Z,1009.34
2018-06-15T02:55:31.338Z,1009.36
2018-06-15T03:00:27.149Z,1009.49
2018-06-15T03:05:23.711Z,1009.55
2018-06-15T03:10:20.544Z,1009.67
2018-06-15T03:15:16.227Z,1009.70
2018-06-15T03:20:13.159Z,1009.76
2018-06-15T03:25:09.211Z,1009.67
2018-06-15T03:30:05.197Z,1009.76
2018-06-15T03:35:00.693Z,1009.70
2018-06-15T03:39:56.610Z,1009.72
2018-06-15T03:44:52.495Z,1009.83
2018-06-15T03:49:48.408Z,1009.79
2018-06-15T03:54:44.633Z,1009.94
2018-06-15T03:59:40.707Z,1010.02
2018-06-15T04:04:36.537Z,1010.03
2018-06-15T04:09:32.509Z,1010.01
2018-06-15T04:14:28.298Z,1010.04
2018-06-15T04:19:25.435Z,1010.03
2018-06-15T04:24:22.048Z,1010.06
2018-06-15T04:29:17.654Z,1010.12
2018-06-15T04:34:13.463Z,1010.04
2018-06-15T04:39:09.471Z,1010.13
2018-06-15T04:44:06.452Z,1010.17
2018-06-15T04:49:02.243Z,1010.09
2018-06-15T04:53:58.774Z,1010.09
2018-06-15T04:58:54.838Z,1010.15
2018-06-15T05:03:50.818Z,1010.19
2018-06-15T05:08:46.448Z,1010.25
2018-06-15T05:13:42.949Z,1010.25
2018-06-15T05:18:38.673Z,1010.26
2018-06-15T05:23:34.670Z,1010.21
2018-06-15T05:28:30.570Z,1010.19
2018-06-15T05:33:26.451Z,1010.32
2018-06-15T05:38:22.676Z,1010.33
2018-06-15T05:43:19.739Z,1010.40
2018-06-15T05:48:15.705Z,1010.53
2018-06-15T05:53:11.300Z,1010.47
2018-06-15T05:58:07.093Z,1010.54
2018-06-15T06:03:03.984Z,1010.53
2018-06-15T06:07:59.772Z,1010.60
2018-06-15T06:12:56.834Z,1010.57
2018-06-15T06:17:53.036Z,1010.63
2018-06-15T06:22:49.104Z,1010.57
2018-06-15T06:27:45.372Z,1010.62
2018-06-15T06:32:41.863Z,1010.71
2018-06-15T06:37:38.117Z,1010.75
2018-06-15T06:42:35.097Z,1010.78
2018-06-15T06:47:32.824Z,1010.76
2018-06-15T06:52:28.611Z,1010.81
2018-06-15T06:57:26.209Z,1010.81
2018-06-15T07:02:21.891Z,1010.79
2018-06-15T07:07:18.229Z,1010.80
2018-06-15T07:12:14.686Z,1010.89
2018-06-15T07:17:10.829Z,1010.83
2018-06-15T07:22:06.320Z,1010.78
2018-06-15T07:27:02.544Z,1010.81
2018-06-15T07:31:57.671Z,1010.74
2018-06-15T07:36:53.303Z,1010.81
2018-06-15T07:41:50.114Z,1010.78
2018-06-15T07:46:45.922Z,1010.79
2018-06-15T07:51:42.122Z,1010.83
2018-06-15T07:56:38.297Z,1010.72
2018-06-15T08:01:34.340Z,1010.79
2018-06-15T08:06:30.744Z,1010.85
2018-06-15T08:11:27.784Z,1010.90
2018-06-15T08:16:24.780Z,1010.88
2018-06-15T08:21:23.419Z,1010.91
2018-06-15T08:26:22.118Z,1010.87
2018-06-15T08:31:20.617Z,1010.80
2018-06-15T08:36:17.377Z,1010.85
2018-06-15T08:41:14.106Z,1010.80
2018-06-15T08:46:11.189Z,1010.71
2018-06-15T08:51:05.512Z,1010.80
2018-06-15T08:56:01.155Z,1010.79
2018-06-15T09:00:55.964Z,1010.83
2018-06-15T09:05:51.931Z,1010.75
2018-06-15T09:10:47.430Z,1010.90
2018-06-15T09:15:46.503Z,1010.72
2018-06-15T09:20:43.502Z,1010.82
2018-06-15T09:25:42.252Z,1010.63
2018-06-15T09:30:36.287Z,1010.73
2018-06-15T09:35:33.658Z,1010.77
2018-06-15T09:40:29.917Z,1010.74
2018-06-15T09:45:24.465Z,1010.80
2018-06-15T09:50:22.815Z,1010.94
2018-06-15T09:55:21.644Z,1010.93
2018-06-15T10:00:16.945Z,1010.74
2018-06-15T10:05:11.203Z,1010.70
2018-06-15T10:10:06.028Z,1010.75
2018-06-15T10:15:01.248Z,1010.74
2018-06-15T10:19:56.643Z,1010.81
2018-06-15T10:24:51.957Z,1010.75
2018-06-15T10:29:47.967Z,1010.70
2018-06-15T10:34:43.878Z,1010.70
2018-06-15T10:39:40.938Z,1010.92
2018-06-15T10:44:39.989Z,1010.63
2018-06-15T10:49:38.053Z,1010.66
2018-06-15T10:54:36.652Z,1010.69
2018-06-15T10:59:33.932Z,1010.64
2018-06-15T11:04:30.293Z,1010.68
2018-06-15T11:09:26.920Z,1010.61
2018-06-15T11:14:24.514Z,1010.51
2018-06-15T11:19:19.115Z,1010.36
2018-06-15T11:24:12.562Z,1010.35
2018-06-15T11:29:10.331Z,1010.43
2018-06-15T11:34:07.698Z,1010.30
2018-06-15T11:39:06.719Z,1010.43
2018-06-15T11:44:06.078Z,1010.31
2018-06-15T11:49:03.523Z,1010.27
2018-06-15T11:54:01.021Z,1010.29
2018-06-15T11:58:58.228Z,1010.22
2018-06-15T12:03:54.989Z,1010.24
2018-06-15T12:08:51.764Z,1010.10
2018-06-15T12:13:47.926Z,1010.12
2018-06-15T12:18:44.707Z,1009.98
2018-06-15T12:23:36.329Z,1010.06
2018-06-15T12:28:33.809Z,1010.03
2018-06-15T12:33:30.265Z,1010.00
2018-06-15T12:38:21.245Z,1009.89
2018-06-15T12:43:14.742Z,1009.95
2018-06-15T12:48:09.805Z,1009.97
2018-06-15T12:53:07.792Z,1010.01
2018-06-15T12:58:01.641Z,1009.99
2018-06-15T13:02:56.782Z,1009.90
2018-06-15T13:07:54.542Z,1009.93
2018-06-15T13:12:49.469Z,1009.97
2018-06-15T13:17:46.618Z,1009.87
2018-06-15T13:22:41.078Z,1009.96
2018-06-15T13:27:36.489Z,1009.96
2018-06-15T13:32:34.034Z,1009.91
2018-06-15T13:37:31.155Z,1009.89
2018-06-15T13:42:27.936Z,1009.85
2018-06-15T13:47:23.524Z,1009.89
2018-06-15T13:52:20.502Z,1009.82
2018-06-15T13:57:15.845Z,1009.79
2018-06-15T14:02:11.450Z,1009.75
2018-06-15T14:07:06.481Z,1009.73
2018-06-15T14:12:01.909Z,1009.74
2018-06-15T14:16:57.390Z,1009.71
2018-06-15T14:21:54.154Z,1009.74
2018-06-15T14:26:49.953Z,1009.71
2018-06-15T14:31:46.602Z,1009.56
2018-06-15T14:36:41.930Z,1009.60
2018-06-15T14:41:38.108Z,1009.65
2018-06-15T14:46:34.730Z,1009.64
2018-06-15T14:51:30.824Z,1009.60
2018-06-15T14:56:26.755Z,1009.52
2018-06-15T15:01:22.891Z,1009.47
2018-06-15T15:06:19.791Z,1009.47
2018-06-15T15:11:16.645Z,1009.43
2018-06-15T15:16:13.454Z,1009.46
2018-06-15T15:21:09.683Z,1009.51
2018-06-15T15:26:06.193Z,1009.39
2018-06-15T15:31:02.339Z,1009.34
2018-06-15T15:35:59.368Z,1009.33
2018-06-15T15:40:55.435Z,1009.30
2018-06-15T15:45:51.311Z,1009.26
2018-06-15T15:50:48.088Z,1009.24
2018-06-15T15:55:43.908Z,1009.06
2018-06-15T16:00:39.860Z,1009.12
2018-06-15T16:05:35.744Z,1009.06
2018-06-15T16:10:32.587Z,1009.04
2018-06-15T16:15:28.238Z,1008.97
2018-06-15T16:20:23.951Z,1009.13
2018-06-15T16:25:21.584Z,1009.01
2018-06-15T16:30:17.256Z,1009.00
2018-06-15T16:35:13.145Z,1008.94
2018-06-15T16:40:09.142Z,1008.98
2018-06-15T16:45:05.598Z,1009.07
2018-06-15T16:50:02.146Z,1009.11
2018-06-15T16:54:58.291Z,1009.13
2018-06-15T16:59:54.497Z,1009.09
2018-06-15T17:04:50.848Z,1009.05
2018-06-15T17:09:46.671Z,1009.05
2018-06-15T17:14:42.763Z,1009.07
2018-06-15T17:19:38.981Z,1009.08
2018-06-15T17:24:35.031Z,1009.09
2018-06-15T17:29:31.083Z,1009.11
2018-06-15T17:34:26.934Z,1009.10
2018-06-15T17:39:24.001Z,1009.05
2018-06-15T17:44:19.648Z,1009.12
2018-06-15T17:49:15.615Z,1009.15
2018-06-15T17:54:11.524Z,1009.09
2018-06-15T17:59:07.310Z,1009.23
2018-06-15T18:04:03.263Z,1009.14
2018-06-15T18:08:59.220Z,1009.15
2018-06-15T18:13:55.395Z,1009.18
2018-06-15T18:18:51.294Z,1009.16
2018-06-15T18:23:47.351Z,1009.08
2018-06-15T18:28:43.224Z,1009.14
2018-06-15T18:33:39.146Z,1009.12
2018-06-15T18:38:35.051Z,1009.15
2018-06-15T18:43:31.041Z,1009.06
2018-06-15T18:48:26.985Z,1009.13
2018-06-15T18:53:22.889Z,1009.04
2018-06-15T18:58:18.711Z,1009.11
2018-06-15T19:03:14.654Z,1009.10
2018-06-15T19:08:11.924Z,1009.15
2018-06-15T19:13:07.417Z,1009.12
2018-06-15T19:18:03.393Z,1009.09
2018-06-15T19:22:59.218Z,1009.12
2018-06-15T19:27:56.467Z,1009.15
2018-06-15T19:32:52.075Z,1009.03
2018-06-15T19:37:47.966Z,1009.14
2018-06-15T19:42:43.755Z,1009.04
2018-06-15T19:47:39.804Z,1009.12
2018-06-15T19:52:35.494Z,1009.08
2018-06-15T19:57:31.517Z,1009.17
2018-06-15T20:02:27.357Z,1009.17
2018-06-15T20:07:23.292Z,1009.25
2018-06-15T20:12:19.333Z,1009.14
2018-06-15T20:17:15.226Z,1009.14
2018-06-15T20:22:11.080Z,1009.16
2018-06-15T20:27:08.328Z,1009.12
2018-06-15T20:32:03.893Z,1009.08
2018-06-15T20:36:59.915Z,1009.10
2018-06-15T20:41:57.509Z,1009.13
2018-06-15T20:46:53.831Z,1009.18
2018-06-15T20:51:49.770Z,1009.16
2018-06-15T20:56:45.633Z,1009.09
2018-06-15T21:01:42.675Z,1009.11
2018-06-15T21:06:39.596Z,1008.96
2018-06-15T21:11:36.147Z,1009.01
2018-06-15T21:16:31.655Z,1008.91
2018-06-15T21:21:27.540Z,1008.84
2018-06-15T21:26:23.579Z,1008.89
2018-06-15T21:31:19.304Z,1008.82
2018-06-15T21:36:15.389Z,1008.84
2018-06-15T21:41:12.286Z,1008.87
2018-06-15T21:46:07.819Z,1008.86
2018-06-15T21:51:04.615Z,1008.75
2018-06-15T21:56:00.086Z,1008.71
2018-06-15T22:00:56.867Z,1008.79
2018-06-15T22:05:52.664Z,1008.79
2018-06-15T22:10:48.392Z,1008.80
2018-06-15T22:15:45.136Z,1008.74
2018-06-15T22:20:41.795Z,1008.83
2018-06-15T22:25:38.270Z,1008.76
2018-06-15T22:30:33.796Z,1008.74
2018-06-15T22:35:29.377Z,1008.74
2018-06-15T22:40:26.878Z,1008.77
2018-06-15T22:45:22.442Z,1008.67
2018-06-15T22:50:18.286Z,1008.67
2018-06-15T22:55:13.982Z,1008.76
2018-06-15T23:00:09.904Z,1008.66
2018-06-15T23:05:05.883Z,1008.69
2018-06-15T23:10:02.525Z,1008.66
2018-06-15T23:14:58.111Z,1008.70
2018-06-15T23:19:54.049Z,1008.66
2018-06-15T23:24:50.305Z,1008.57
2018-06-15T23:29:47.097Z,1008.57
2018-06-15T23:34:42.991Z,1008.70
2018-06-15T23:39:39.038Z,1008.64
2018-06-15T23:44:35.124Z,1008.71
2018-06-15T23:49:30.954Z,1008.73
2018-06-15T23:54:26.911Z,1008.78
2018-06-15T23:59:22.875Z,1008.75
